createdAt,value
2022-10-02T00:01:18.401Z,100734.25
2022-10-02T00:03:47.004Z,100739.69
2022-10-02T00:06:21.859Z,100734.50
2022-10-02T00:08:57.699Z,100739.97
2022-10-02T00:11:29.258Z,100740.25
2022-10-02T00:14:01.212Z,100743.03
2022-10-02T00:16:34.003Z,100751.03
2022-10-02T00:19:02.128Z,100744.88
2022-10-02T00:21:41.876Z,100745.84
2022-10-02T00:24:16.003Z,100756.50
2022-10-02T00:26:52.689Z,100747.81
2022-10-02T00:29:36.334Z,100750.47
2022-10-02T00:32:17.724Z,100744.31
2022-10-02T00:34:57.875Z,100749.75
2022-10-02T00:37:36.880Z,100751.56
2022-10-02T00:40:26.213Z,100750.75
2022-10-02T00:43:06.055Z,100749.06
2022-10-02T00:45:47.677Z,100751.72
2022-10-02T00:48:34.254Z,100747.25
2022-10-02T00:51:15.476Z,100752.56
2022-10-02T00:53:55.182Z,100758.56
2022-10-02T00:56:33.793Z,100751.44
2022-10-02T00:59:39.259Z,100753.13
2022-10-02T01:02:12.689Z,100764.47
2022-10-02T01:04:41.322Z,100767.00
2022-10-02T01:07:12.433Z,100766.00
2022-10-02T01:09:40.903Z,100760.44
2022-10-02T01:12:10.605Z,100765.59
2022-10-02T01:14:39.804Z,100764.63
2022-10-02T01:17:20.866Z,100768.97
2022-10-02T01:19:48.558Z,100769.53
2022-10-02T01:22:22.190Z,100764.81
2022-10-02T01:24:51.872Z,100767.16
2022-10-02T01:27:19.800Z,100772.09
2022-10-02T01:29:49.783Z,100766.63
2022-10-02T01:32:17.962Z,100772.53
2022-10-02T01:34:46.832Z,100769.56
2022-10-02T01:37:14.547Z,100774.63
2022-10-02T01:39:42.388Z,100775.19
2022-10-02T01:42:11.520Z,100781.22
2022-10-02T01:44:39.215Z,100785.41
2022-10-02T01:47:10.474Z,100783.19
2022-10-02T01:49:50.265Z,100785.44
2022-10-02T01:52:28.082Z,100786.97
2022-10-02T01:55:10.244Z,100785.72
2022-10-02T01:57:47.821Z,100772.00
2022-10-02T02:00:17.995Z,100775.34
2022-10-02T02:02:55.223Z,100771.44
2022-10-02T02:05:34.337Z,100764.81
2022-10-02T02:08:09.030Z,100770.72
2022-10-02T02:10:50.899Z,100760.63
2022-10-02T02:13:27.823Z,100748.69
2022-10-02T02:16:02.815Z,100747.59
2022-10-02T02:18:36.575Z,100766.09
2022-10-02T02:21:09.920Z,100754.28
2022-10-02T02:23:38.899Z,100762.00
2022-10-02T02:26:12.390Z,100756.41
2022-10-02T02:28:45.652Z,100765.78
2022-10-02T02:31:16.809Z,100762.97
2022-10-02T02:33:48.906Z,100763.53
2022-10-02T02:36:19.488Z,100767.03
2022-10-02T02:38:50.133Z,100755.41
2022-10-02T02:41:24.864Z,100765.09
2022-10-02T02:43:59.619Z,100772.09
2022-10-02T02:46:34.930Z,100774.78
2022-10-02T02:49:09.666Z,100776.59
2022-10-02T02:51:41.951Z,100787.09
2022-10-02T02:54:15.489Z,100787.94
2022-10-02T02:56:45.232Z,100793.13
2022-10-02T02:59:15.911Z,100804.50
2022-10-02T03:01:43.798Z,100819.53
2022-10-02T03:04:13.585Z,100821.06
2022-10-02T03:06:43.730Z,100815.59
2022-10-02T03:09:14.419Z,100815.59
2022-10-02T03:11:50.667Z,100829.47
2022-10-02T03:14:53.655Z,100819.38
2022-10-02T03:17:33.116Z,100806.75
2022-10-02T03:20:11.520Z,100811.78
2022-10-02T03:22:46.591Z,100793.69
2022-10-02T03:25:20.061Z,100796.06
2022-10-02T03:27:53.005Z,100785.09
2022-10-02T03:30:24.156Z,100785.66
2022-10-02T03:32:53.593Z,100801.34
2022-10-02T03:35:23.500Z,100802.91
2022-10-02T03:37:54.671Z,100793.91
2022-10-02T03:40:24.123Z,100789.94
2022-10-02T03:42:52.349Z,100780.16
2022-10-02T03:45:46.242Z,100772.00
2022-10-02T03:48:09.055Z,100775.50
2022-10-02T03:50:36.758Z,100773.41
2022-10-02T03:53:12.031Z,100778.72
2022-10-02T03:55:41.980Z,100770.56
2022-10-02T03:58:14.241Z,100765.25
2022-10-02T04:00:47.741Z,100760.59
2022-10-02T04:03:21.261Z,100755.94
2022-10-02T04:05:52.602Z,100754.81
2022-10-02T04:08:25.790Z,100747.50
2022-10-02T04:11:00.415Z,100748.34
2022-10-02T04:13:32.845Z,100743.84
2022-10-02T04:16:11.029Z,100753.66
2022-10-02T04:18:46.215Z,100761.66
2022-10-02T04:21:22.201Z,100766.31
2022-10-02T04:23:53.793Z,100768.31
2022-10-02T04:26:27.467Z,100773.66
2022-10-02T04:28:59.218Z,100773.66
2022-10-02T04:31:28.379Z,100769.28
2022-10-02T04:34:02.643Z,100769.44
2022-10-02T04:36:41.908Z,100792.31
2022-10-02T04:39:52.915Z,100791.31
2022-10-02T04:42:30.341Z,100789.66
2022-10-02T04:45:18.185Z,100798.50
2022-10-02T04:48:12.691Z,100804.81
2022-10-02T04:50:49.266Z,100813.66
2022-10-02T04:53:29.197Z,100814.50
2022-10-02T04:56:13.448Z,100810.84
2022-10-02T04:58:56.605Z,100801.00
2022-10-02T05:01:38.874Z,100804.50
2022-10-02T05:04:33.821Z,100804.34
2022-10-02T05:07:24.576Z,100811.41
2022-10-02T05:10:01.724Z,100811.41
2022-10-02T05:12:53.839Z,100824.59
2022-10-02T05:15:36.860Z,100810.25
2022-10-02T05:18:18.856Z,100818.25
2022-10-02T05:21:10.156Z,100817.13
2022-10-02T05:23:51.016Z,100814.44
2022-10-02T05:26:33.927Z,100810.81
2022-10-02T05:29:17.944Z,100817.00
2022-10-02T05:32:02.359Z,100816.16
2022-10-02T05:34:44.959Z,100817.66
2022-10-02T05:37:28.006Z,100820.19
2022-10-02T05:40:03.734Z,100824.41
2022-10-02T05:42:40.032Z,100821.59
2022-10-02T05:45:23.228Z,100829.28
2022-10-02T05:47:54.039Z,100825.66
2022-10-02T05:50:28.230Z,100826.34
2022-10-02T05:53:00.341Z,100828.69
2022-10-02T05:55:36.556Z,100827.56
2022-10-02T05:58:08.125Z,100834.44
2022-10-02T06:00:42.401Z,100832.31
2022-10-02T06:03:16.343Z,100833.00
2022-10-02T06:05:55.051Z,100838.06
2022-10-02T06:08:31.444Z,100837.63
2022-10-02T06:11:07.804Z,100840.81
2022-10-02T06:13:41.634Z,100835.19
2022-10-02T06:16:13.789Z,100842.91
2022-10-02T06:18:49.043Z,100849.78
2022-10-02T06:21:27.166Z,100854.81
2022-10-02T06:23:59.155Z,100863.50
2022-10-02T06:26:31.758Z,100858.56
2022-10-02T06:29:03.140Z,100866.56
2022-10-02T06:31:39.076Z,100870.78
2022-10-02T06:34:11.509Z,100874.16
2022-10-02T06:37:06.838Z,100875.53
2022-10-02T06:39:46.976Z,100873.38
2022-10-02T06:42:25.548Z,100878.44
2022-10-02T06:45:01.471Z,100875.50
2022-10-02T06:47:43.618Z,100875.22
2022-10-02T06:50:28.224Z,100885.59
2022-10-02T06:53:05.944Z,100880.94
2022-10-02T06:55:44.828Z,100888.53
2022-10-02T06:58:41.171Z,100897.06
2022-10-02T07:01:19.952Z,100893.94
2022-10-02T07:04:11.500Z,100893.63
2022-10-02T07:07:06.967Z,100897.69
2022-10-02T07:10:04.944Z,100896.41
2022-10-02T07:12:48.800Z,100905.94
2022-10-02T07:15:41.772Z,100896.78
2022-10-02T07:18:21.675Z,100896.63
2022-10-02T07:20:59.835Z,100898.16
2022-10-02T07:23:41.941Z,100903.19
2022-10-02T07:26:20.426Z,100898.41
2022-10-02T07:28:59.170Z,100908.38
2022-10-02T07:31:35.392Z,100903.75
2022-10-02T07:34:18.883Z,100918.47
2022-10-02T07:36:56.472Z,100916.50
2022-10-02T07:39:37.074Z,100916.19
2022-10-02T07:42:24.264Z,100922.09
2022-10-02T07:45:10.053Z,100925.28
2022-10-02T07:47:57.064Z,100933.16
2022-10-02T07:50:34.632Z,100928.50
2022-10-02T07:53:10.671Z,100920.03
2022-10-02T07:55:42.202Z,100921.53
2022-10-02T07:58:14.571Z,100921.38
2022-10-02T08:00:48.742Z,100929.94
2022-10-02T08:03:21.012Z,100928.50
2022-10-02T08:05:52.391Z,100930.53
2022-10-02T08:08:25.154Z,100934.59
2022-10-02T08:10:56.144Z,100936.66
2022-10-02T08:13:29.633Z,100941.84
2022-10-02T08:15:57.285Z,100945.91
2022-10-02T08:18:35.908Z,100950.75
2022-10-02T08:21:09.570Z,100946.25
2022-10-02T08:23:43.898Z,100945.94
2022-10-02T08:26:18.377Z,100954.66
2022-10-02T08:28:53.444Z,100942.94
2022-10-02T08:31:21.054Z,100946.31
2022-10-02T08:33:50.226Z,100939.81
2022-10-02T08:36:51.093Z,100947.72
2022-10-02T08:39:47.558Z,100941.38
2022-10-02T08:42:51.039Z,100947.25
2022-10-02T08:45:55.143Z,100949.78
2022-10-02T08:48:56.408Z,100954.13
2022-10-02T08:52:07.338Z,100965.53
2022-10-02T08:54:59.773Z,100962.56
2022-10-02T08:57:48.916Z,100958.25
2022-10-02T09:00:25.918Z,100960.28
2022-10-02T09:03:30.798Z,100962.16
2022-10-02T09:06:21.307Z,100960.53
2022-10-02T09:09:10.677Z,100958.59
2022-10-02T09:12:06.952Z,100959.44
2022-10-02T09:14:45.948Z,100969.53
2022-10-02T09:17:24.919Z,100967.00
2022-10-02T09:20:12.917Z,100973.38
2022-10-02T09:23:11.352Z,100971.22
2022-10-02T09:25:53.813Z,100973.56
2022-10-02T09:28:46.225Z,100972.44
2022-10-02T09:31:40.175Z,100972.94
2022-10-02T09:34:40.413Z,100981.16
2022-10-02T09:37:38.640Z,100983.47
2022-10-02T09:40:43.642Z,100980.66
2022-10-02T09:43:52.813Z,100987.72
2022-10-02T09:47:04.797Z,100991.22
2022-10-02T09:49:57.550Z,100987.38
2022-10-02T09:52:53.368Z,100991.25
2022-10-02T09:55:52.636Z,100990.97
2022-10-02T09:59:01.070Z,100989.13
2022-10-02T10:01:48.511Z,100994.34
2022-10-02T10:05:05.101Z,100996.31
2022-10-02T10:08:16.647Z,100994.66
2022-10-02T10:11:16.218Z,100992.13
2022-10-02T10:14:12.780Z,101002.53
2022-10-02T10:17:19.244Z,100999.38
2022-10-02T10:20:22.900Z,100999.19
2022-10-02T10:23:14.383Z,101001.03
2022-10-02T10:25:57.728Z,101001.88
2022-10-02T10:29:08.967Z,101011.13
2022-10-02T10:32:30.937Z,101005.44
2022-10-02T10:35:24.165Z,100997.97
2022-10-02T10:38:15.171Z,101005.84
2022-10-02T10:41:05.462Z,101013.59
2022-10-02T10:43:51.350Z,101018.28
2022-10-02T10:46:41.072Z,101015.59
2022-10-02T10:49:44.182Z,101011.09
2022-10-02T10:52:30.085Z,101012.94
2022-10-02T10:55:18.831Z,101012.75
2022-10-02T10:57:56.230Z,101013.59
2022-10-02T11:00:26.432Z,101014.44
2022-10-02T11:03:15.003Z,101024.50
2022-10-02T11:06:22.761Z,101025.16
2022-10-02T11:09:32.504Z,101034.75
2022-10-02T11:12:24.510Z,101038.44
2022-10-02T11:15:06.122Z,101033.25
2022-10-02T11:17:56.362Z,101036.75
2022-10-02T11:20:56.911Z,101031.22
2022-10-02T11:23:40.666Z,101035.59
2022-10-02T11:26:23.815Z,101041.28
2022-10-02T11:29:42.166Z,101041.97
2022-10-02T11:33:00.513Z,101046.69
2022-10-02T11:35:41.248Z,101055.56
2022-10-02T11:38:59.920Z,101055.75
2022-10-02T11:42:00.082Z,101059.63
2022-10-02T11:44:45.818Z,101064.50
2022-10-02T11:47:32.290Z,101056.44
2022-10-02T11:50:33.095Z,101055.44
2022-10-02T11:53:23.274Z,101061.50
2022-10-02T11:56:04.415Z,101061.16
2022-10-02T11:58:48.485Z,101071.53
2022-10-02T12:01:24.693Z,101068.72
2022-10-02T12:04:01.654Z,101060.66
2022-10-02T12:06:46.200Z,101063.84
2022-10-02T12:09:23.758Z,101075.59
2022-10-02T12:12:06.698Z,101069.88
2022-10-02T12:14:43.636Z,101074.75
2022-10-02T12:17:42.214Z,101074.56
2022-10-02T12:20:40.073Z,101074.09
2022-10-02T12:23:40.063Z,101079.78
2022-10-02T12:26:33.741Z,101084.47
2022-10-02T12:29:06.980Z,101080.59
2022-10-02T12:31:51.103Z,101075.25
2022-10-02T12:34:40.806Z,101090.34
2022-10-02T12:37:16.341Z,101088.00
2022-10-02T12:39:51.423Z,101086.16
2022-10-02T12:42:45.583Z,101090.38
2022-10-02T12:45:45.018Z,101083.31
2022-10-02T12:48:36.015Z,101088.69
2022-10-02T12:51:30.434Z,101075.44
2022-10-02T12:54:17.823Z,101088.53
2022-10-02T12:57:05.827Z,101083.16
2022-10-02T12:59:49.474Z,101085.00
2022-10-02T13:03:00.970Z,101081.97
2022-10-02T13:06:14.554Z,101081.13
2022-10-02T13:09:03.461Z,101072.41
2022-10-02T13:11:44.393Z,101085.50
2022-10-02T13:14:32.466Z,101083.81
2022-10-02T13:17:19.474Z,101078.44
2022-10-02T13:19:59.228Z,101085.31
2022-10-02T13:22:39.730Z,101087.34
2022-10-02T13:25:31.914Z,101099.09
2022-10-02T13:28:04.554Z,101093.56
2022-10-02T13:30:38.325Z,101092.06
2022-10-02T13:33:21.540Z,101088.19
2022-10-02T13:35:57.878Z,101093.91
2022-10-02T13:38:40.612Z,101097.59
2022-10-02T13:41:21.696Z,101094.75
2022-10-02T13:43:59.904Z,101095.91
2022-10-02T13:46:49.512Z,101110.03
2022-10-02T13:49:28.391Z,101098.28
2022-10-02T13:52:03.392Z,101096.25
2022-10-02T13:54:50.015Z,101095.94
2022-10-02T13:57:37.037Z,101093.78
2022-10-02T14:00:10.554Z,101094.78
2022-10-02T14:03:00.135Z,101100.31
2022-10-02T14:05:38.074Z,101100.66
2022-10-02T14:08:26.630Z,101106.38
2022-10-02T14:11:09.327Z,101107.56
2022-10-02T14:13:52.932Z,101106.72
2022-10-02T14:16:36.360Z,101106.53
2022-10-02T14:19:35.202Z,101116.78
2022-10-02T14:22:26.180Z,101114.75
2022-10-02T14:25:18.594Z,101123.63
2022-10-02T14:28:32.962Z,101120.44
2022-10-02T14:31:25.602Z,101130.34
2022-10-02T14:34:25.972Z,101130.66
2022-10-02T14:37:02.828Z,101140.06
2022-10-02T14:39:36.660Z,101143.56
2022-10-02T14:42:28.500Z,101144.56
2022-10-02T14:45:27.579Z,101141.88
2022-10-02T14:48:10.497Z,101148.94
2022-10-02T14:50:57.670Z,101143.91
2022-10-02T14:53:43.820Z,101145.22
2022-10-02T14:56:41.909Z,101152.56
2022-10-02T14:59:28.487Z,101149.22
2022-10-02T15:02:11.806Z,101159.09
2022-10-02T15:04:56.059Z,101161.94
2022-10-02T15:07:27.719Z,101164.28
2022-10-02T15:10:16.120Z,101168.28
2022-10-02T15:12:51.007Z,101173.59
2022-10-02T15:15:26.342Z,101173.94
2022-10-02T15:18:14.810Z,101169.75
2022-10-02T15:20:59.311Z,101179.78
2022-10-02T15:23:43.436Z,101173.91
2022-10-02T15:26:27.030Z,101180.25
2022-10-02T15:29:05.935Z,101176.88
2022-10-02T15:31:42.042Z,101180.75
2022-10-02T15:34:20.052Z,101191.94
2022-10-02T15:37:14.281Z,101179.53
2022-10-02T15:39:58.198Z,101195.44
2022-10-02T15:42:54.028Z,101194.91
2022-10-02T15:45:43.848Z,101202.38
2022-10-02T15:48:34.917Z,101206.53
2022-10-02T15:51:11.794Z,101209.53
2022-10-02T15:53:52.375Z,101213.34
2022-10-02T15:56:36.756Z,101219.19
2022-10-02T15:59:21.728Z,101219.66
2022-10-02T16:02:00.248Z,101219.00
2022-10-02T16:04:35.415Z,101228.34
2022-10-02T16:07:39.888Z,101229.63
2022-10-02T16:10:20.223Z,101226.56
2022-10-02T16:13:18.382Z,101239.28
2022-10-02T16:15:52.875Z,101237.22
2022-10-02T16:18:32.771Z,101232.31
2022-10-02T16:21:27.042Z,101240.69
2022-10-02T16:24:33.931Z,101242.53
2022-10-02T16:27:21.981Z,101252.84
2022-10-02T16:30:03.110Z,101249.94
2022-10-02T16:32:39.667Z,101258.28
2022-10-02T16:35:26.006Z,101262.09
2022-10-02T16:38:00.902Z,101266.75
2022-10-02T16:40:40.343Z,101263.56
2022-10-02T16:43:45.221Z,101276.22
2022-10-02T16:46:17.364Z,101283.03
2022-10-02T16:48:53.011Z,101287.03
2022-10-02T16:51:36.784Z,101281.94
2022-10-02T16:54:16.246Z,101296.06
2022-10-02T16:56:50.934Z,101296.19
2022-10-02T16:59:26.476Z,101303.69
2022-10-02T17:02:17.121Z,101315.53
2022-10-02T17:04:58.943Z,101319.50
2022-10-02T17:07:34.893Z,101325.84
2022-10-02T17:10:19.025Z,101323.91
2022-10-02T17:12:53.461Z,101333.22
2022-10-02T17:15:26.643Z,101336.31
2022-10-02T17:18:18.200Z,101334.06
2022-10-02T17:20:51.453Z,101349.56
2022-10-02T17:23:27.745Z,101357.34
2022-10-02T17:26:03.566Z,101355.25
2022-10-02T17:28:39.059Z,101367.22
2022-10-02T17:31:47.655Z,101366.97
2022-10-02T17:34:24.242Z,101373.72
2022-10-02T17:37:34.427Z,101380.22
2022-10-02T17:40:10.876Z,101383.31
2022-10-02T17:42:51.833Z,101387.28
2022-10-02T17:45:30.429Z,101403.91
2022-10-02T17:48:15.475Z,101406.16
2022-10-02T17:50:57.973Z,101408.66
2022-10-02T17:53:57.380Z,101404.72
2022-10-02T17:56:52.067Z,101409.53
2022-10-02T17:59:40.652Z,101423.16
2022-10-02T18:02:23.431Z,101429.91
2022-10-02T18:05:13.905Z,101432.97
2022-10-02T18:07:59.785Z,101444.81
2022-10-02T18:10:35.423Z,101441.00
2022-10-02T18:13:25.874Z,101456.44
2022-10-02T18:16:15.860Z,101457.72
2022-10-02T18:19:03.606Z,101460.66
2022-10-02T18:21:40.280Z,101469.91
2022-10-02T18:24:39.580Z,101468.63
2022-10-02T18:27:32.686Z,101471.72
2022-10-02T18:30:08.696Z,101480.81
2022-10-02T18:32:56.769Z,101482.09
2022-10-02T18:35:32.199Z,101483.31
2022-10-02T18:38:22.219Z,101488.22
2022-10-02T18:40:55.917Z,101485.09
2022-10-02T18:43:41.319Z,101491.69
2022-10-02T18:46:27.038Z,101492.94
2022-10-02T18:49:11.430Z,101501.22
2022-10-02T18:51:59.600Z,101502.47
2022-10-02T18:54:40.667Z,101496.69
2022-10-02T18:57:25.382Z,101504.22
2022-10-02T19:00:03.448Z,101511.78
2022-10-02T19:02:46.404Z,101513.84
2022-10-02T19:05:25.671Z,101518.75
2022-10-02T19:08:08.158Z,101515.75
2022-10-02T19:10:46.533Z,101519.78
2022-10-02T19:13:21.980Z,101522.09
2022-10-02T19:15:52.252Z,101516.31
2022-10-02T19:18:22.027Z,101521.91
2022-10-02T19:20:57.508Z,101527.50
2022-10-02T19:23:32.408Z,101533.25
2022-10-02T19:26:06.847Z,101543.16
2022-10-02T19:28:45.385Z,101545.25
2022-10-02T19:31:14.161Z,101550.84
2022-10-02T19:33:51.039Z,101551.09
2022-10-02T19:36:22.096Z,101557.66
2022-10-02T19:38:56.556Z,101562.38
2022-10-02T19:41:26.641Z,101564.59
2022-10-02T19:43:57.951Z,101564.97
2022-10-02T19:46:33.765Z,101566.88
2022-10-02T19:49:02.393Z,101578.91
2022-10-02T19:51:30.063Z,101577.47
2022-10-02T19:54:02.711Z,101581.44
2022-10-02T19:56:42.272Z,101587.00
2022-10-02T19:59:17.200Z,101587.41
2022-10-02T20:01:51.551Z,101590.44
2022-10-02T20:04:21.861Z,101585.44
2022-10-02T20:06:54.332Z,101588.59
2022-10-02T20:09:29.263Z,101598.66
2022-10-02T20:12:04.619Z,101590.19
2022-10-02T20:14:39.810Z,101594.91
2022-10-02T20:17:09.475Z,101598.91
2022-10-02T20:19:41.561Z,101598.28
2022-10-02T20:22:17.506Z,101602.16
2022-10-02T20:24:52.194Z,101604.34
2022-10-02T20:27:25.463Z,101613.66
2022-10-02T20:30:00.453Z,101615.81
2022-10-02T20:32:32.692Z,101616.16
2022-10-02T20:35:05.026Z,101623.66
2022-10-02T20:37:35.544Z,101624.88
2022-10-02T20:40:11.509Z,101621.59
2022-10-02T20:42:47.454Z,101623.75
2022-10-02T20:45:16.044Z,101627.63
2022-10-02T20:48:21.310Z,101642.13
2022-10-02T20:50:58.815Z,101637.13
2022-10-02T20:54:15.974Z,101643.78
2022-10-02T20:57:01.951Z,101651.16
2022-10-02T21:00:06.913Z,101655.84
2022-10-02T21:03:06.680Z,101661.63
2022-10-02T21:06:04.520Z,101660.97
2022-10-02T21:09:13.429Z,101666.66
2022-10-02T21:12:00.826Z,101667.00
2022-10-02T21:14:56.601Z,101666.38
2022-10-02T21:17:52.255Z,101673.75
2022-10-02T21:20:51.783Z,101669.72
2022-10-02T21:23:53.882Z,101678.03
2022-10-02T21:26:48.677Z,101681.94
2022-10-02T21:29:48.284Z,101681.53
2022-10-02T21:32:51.432Z,101686.22
2022-10-02T21:35:48.126Z,101691.13
2022-10-02T21:38:58.145Z,101701.22
2022-10-02T21:41:59.382Z,101699.84
2022-10-02T21:45:07.286Z,101704.63
2022-10-02T21:47:55.002Z,101699.66
2022-10-02T21:50:58.322Z,101705.31
2022-10-02T21:54:00.483Z,101703.81
2022-10-02T21:56:57.123Z,101704.25
2022-10-02T22:00:18.988Z,101713.38
2022-10-02T22:03:28.039Z,101724.34
2022-10-02T22:06:12.464Z,101722.84
2022-10-02T22:08:56.450Z,101730.91
2022-10-02T22:11:36.222Z,101728.34
2022-10-02T22:14:09.876Z,101735.59
2022-10-02T22:16:55.063Z,101733.78
2022-10-02T22:19:37.332Z,101735.69
2022-10-02T22:22:17.927Z,101745.47
2022-10-02T22:24:58.298Z,101742.81
2022-10-02T22:27:46.460Z,101741.13
2022-10-02T22:30:25.152Z,101745.47
2022-10-02T22:33:14.204Z,101750.91
2022-10-02T22:36:02.144Z,101750.03
2022-10-02T22:38:34.886Z,101747.47
2022-10-02T22:41:07.702Z,101754.72
2022-10-02T22:43:45.161Z,101755.56
2022-10-02T22:46:23.725Z,101765.22
2022-10-02T22:48:59.631Z,101767.03
2022-10-02T22:51:36.293Z,101769.78
2022-10-02T22:54:17.244Z,101771.50
2022-10-02T22:56:54.451Z,101773.41
2022-10-02T22:59:26.134Z,101787.63
2022-10-02T23:02:00.244Z,101789.44
2022-10-02T23:04:33.928Z,101778.91
2022-10-02T23:07:07.896Z,101781.56
2022-10-02T23:09:45.064Z,101783.50
2022-10-02T23:12:17.885Z,101778.25
2022-10-02T23:15:00.367Z,101771.25
2022-10-02T23:17:33.895Z,101777.63
2022-10-02T23:20:07.906Z,101777.81
2022-10-02T23:22:39.839Z,101777.94
2022-10-02T23:25:20.847Z,101779.84
2022-10-02T23:27:57.652Z,101782.69
2022-10-02T23:30:26.086Z,101784.59
2022-10-02T23:32:58.509Z,101790.09
2022-10-02T23:35:32.371Z,101785.88
2022-10-02T23:38:08.438Z,101790.44
2022-10-02T23:41:17.532Z,101785.19
2022-10-02T23:43:53.551Z,101779.25
2022-10-02T23:46:29.827Z,101783.91
2022-10-02T23:48:57.864Z,101789.50
2022-10-02T23:51:37.080Z,101780.81
2022-10-02T23:54:23.322Z,101789.84
2022-10-02T23:57:09.694Z,101790.97
